Fort Morgan, CO (80701)

5:49 AM MST on February 08, 2016 (GMT -0700)
Fort Morgan | | Change Station
CLOSE
Current Station
Personal Weather Station
Location: Fort Morgan, CO
Elevation: 4334 ft
Nearby Weather Stations

Elev 4334 ft 40.26 °N, 103.80 °W | Updated 2 seconds ago

Partly Cloudy
Partly Cloudy
15.9 °F
Feels Like 16 °F
N
0.0
Wind Variable Wind from West
Gusts 0.0 mph

Today
High -- | Low -- °F
--% Chance of Precip.
Yesterday
High -- | Low -- °F
Precip. -- in
Pressure 30.38 in
Visibility 10.0 miles
Clouds Mostly Cloudy 8000 ft
Windchill 16 °F
Dew Point 12 °F
Humidity 83%
Rainfall 0.00 in
Snow Depth Not available.
6:57 AM 5:21 PM
Waning Crescent, 0% visible
METAR KFMM 081235Z AUTO 29007KT 10SM BKN080 M08/M10 A3038 RMK AO2 T10851105
Pressure 30.38 in
Visibility 10.0 miles
Clouds Mostly Cloudy 8000 ft
Windchill 16 °F
Dew Point 12 °F
Humidity 83%
Rainfall 0.00 in
Snow Depth Not available.
6:57 AM 5:21 PM
Waning Crescent, 0% visible
METAR KFMM 081235Z AUTO 29007KT 10SM BKN080 M08/M10 A3038 RMK AO2 T10851105

10-Day Weather Forecast

Almanac

Astronomy

Feb. 08, 2016 Rise Set
Actual Time
Civil Twilight
Nautical Twilight
Astronomical Twilight
Moon
Length of Visible Light
Length of Day
Tomorrow will be .
, % of the Moon is Illuminated

Today's Extremes

State Highs State Lows

Community

WunderPhotos

Upload Photos

1,891,428 photos uploaded!

WunderBlog® & News

Nearby

Air Quality

  Air Quality AQ Index Pollutant
Not available.

Snow Depth

Station Depth Elevation

Earthquake Activity

City Distance Mag. Time & Date
Minimum magnitude displayed is 2.5.

Coastal Water Temperatures

Place Temperature

Stations

Nearby Weather Stations

Station Location Temp. Windchill Dew Point Humidity Wind Precip. Elev Updated Type
                   

Watches & Warnings

There are currently no watches in effect.